Time;durP1;ratioP1;P1;durP2;ratioP2;P2;SDS_P1;SDS_P2;PMS_P1;PMS_P2;Temp;Humidity;BMP_temperature;BMP_pressure;BME280_temperature;BME280_humidity;BME280_pressure;Samples;Min_cycle;Max_cycle;Signal;HPM_P1;HPM_P2
2022/09/07 00:01:54;;;;;;;11.37;10.23;;;-40.00;99.90;;;;;;5096083;28;20256;-68
2022/09/07 00:04:20;;;;;;;9.87;9.03;;;-40.00;99.90;;;;;;5096085;28;20484;-71
2022/09/07 00:06:46;;;;;;;11.60;10.50;;;-40.00;99.90;;;;;;5096099;28;20174;-66
2022/09/07 00:09:12;;;;;;;10.57;9.77;;;-40.00;99.90;;;;;;5095888;28;20173;-69
2022/09/07 00:11:38;;;;;;;15.90;10.13;;;-40.00;99.90;;;;;;5094583;28;20174;-68
2022/09/07 00:14:04;;;;;;;10.70;9.73;;;-40.00;99.90;;;;;;5095767;28;20572;-68
2022/09/07 00:16:30;;;;;;;9.33;8.53;;;-40.00;99.90;;;;;;5096007;28;20171;-67
2022/09/07 00:18:59;;;;;;;9.80;8.83;;;-40.00;99.90;;;;;;5094786;28;20583;-68
2022/09/07 00:21:26;;;;;;;10.17;9.20;;;-40.00;99.90;;;;;;5095683;28;20205;-68
2022/09/07 00:23:53;;;;;;;11.37;9.43;;;-40.00;99.90;;;;;;5095531;28;20174;-70
2022/09/07 00:26:24;;;;;;;10.60;9.80;;;-40.00;99.90;;;;;;5095903;28;20162;-70
2022/09/07 00:28:50;;;;;;;19.00;11.40;;;-40.00;99.90;;;;;;5096561;28;20166;-67
2022/09/07 00:31:19;;;;;;;10.40;9.70;;;-40.00;99.90;;;;;;5098863;28;20178;-70
2022/09/07 00:33:47;;;;;;;11.80;9.93;;;-40.00;99.90;;;;;;5099854;28;20170;-69
2022/09/07 00:36:17;;;;;;;12.17;11.10;;;-40.00;99.90;;;;;;5099947;28;20163;-68
2022/09/07 00:38:43;;;;;;;11.03;10.23;;;-40.00;99.90;;;;;;5099429;28;20659;-68
2022/09/07 00:41:10;;;;;;;9.90;9.10;;;-40.00;99.90;;;;;;5099777;28;20618;-69
2022/09/07 00:43:37;;;;;;;10.37;9.50;;;-40.00;99.90;;;;;;5098655;28;20171;-68
2022/09/07 00:46:05;;;;;;;8.73;8.10;;;-40.00;99.90;;;;;;5098651;28;20163;-73
2022/09/07 00:48:54;;;;;;;9.00;7.87;;;-40.00;99.90;;;;;;5099624;28;20201;-67
2022/09/07 00:51:40;;;;;;;8.23;7.53;;;-40.00;99.90;;;;;;5093067;28;20207;-70
2022/09/07 00:54:16;;;;;;;15.93;8.83;;;-40.00;99.90;;;;;;5099182;28;20166;-69
2022/09/07 00:56:45;;;;;;;6.53;4.87;;;-40.00;99.90;;;;;;5099671;28;20487;-69
2022/09/07 00:59:15;;;;;;;12.77;6.17;;;-40.00;99.90;;;;;;5099183;28;20612;-70
2022/09/07 01:01:41;;;;;;;7.20;6.70;;;-40.00;99.90;;;;;;5099399;28;20198;-66
2022/09/07 01:04:08;;;;;;;9.50;7.13;;;-40.00;99.90;;;;;;5099353;28;20597;-68
2022/09/07 01:06:36;;;;;;;7.93;6.63;;;-40.00;99.90;;;;;;5099460;28;20213;-68
2022/09/07 01:09:08;;;;;;;10.40;6.73;;;-40.00;99.90;;;;;;5099012;28;20163;-68
2022/09/07 01:11:35;;;;;;;7.97;7.13;;;-40.00;99.90;;;;;;5099258;28;20187;-68
2022/09/07 01:14:03;;;;;;;10.57;8.40;;;-40.00;99.90;;;;;;5099058;28;20163;-70
2022/09/07 01:16:38;;;;;;;8.13;7.43;;;-40.00;99.90;;;;;;5099175;28;20199;-68
2022/09/07 01:19:10;;;;;;;8.77;7.87;;;-40.00;99.90;;;;;;5098884;28;20220;-73
2022/09/07 01:21:54;;;;;;;7.43;6.83;;;-40.00;99.90;;;;;;5099007;28;20218;-68
2022/09/07 01:24:35;;;;;;;7.37;6.67;;;-40.00;99.90;;;;;;5097859;28;20188;-68
2022/09/07 01:27:07;;;;;;;13.47;8.27;;;-40.00;99.90;;;;;;5099002;28;20246;-67
2022/09/07 01:29:44;;;;;;;15.03;7.20;;;-40.00;99.90;;;;;;5098802;28;20571;-66
2022/09/07 01:32:31;;;;;;;7.43;6.83;;;-40.00;99.90;;;;;;5098832;28;20542;-68
2022/09/07 01:35:00;;;;;;;8.03;7.43;;;-40.00;99.90;;;;;;5098879;28;20170;-69
2022/09/07 01:37:44;;;;;;;8.20;7.60;;;-40.00;99.90;;;;;;5098792;28;20224;-68
2022/09/07 01:40:36;;;;;;;9.23;7.77;;;-40.00;99.90;;;;;;5096511;28;20183;-68
2022/09/07 01:43:09;;;;;;;10.57;8.00;;;-40.00;99.90;;;;;;5091027;28;20525;-67
2022/09/07 01:45:39;;;;;;;8.57;7.87;;;-40.00;99.90;;;;;;5098586;28;20171;-67
2022/09/07 01:48:07;;;;;;;10.07;8.60;;;-40.00;99.90;;;;;;5098577;28;20288;-69
2022/09/07 01:51:03;;;;;;;9.73;8.83;;;-40.00;99.90;;;;;;5097265;28;20218;-68
2022/09/07 01:53:34;;;;;;;11.73;10.37;;;-40.00;99.90;;;;;;5098596;28;20204;-70
2022/09/07 01:56:15;;;;;;;10.50;9.63;;;-40.00;99.90;;;;;;5098339;28;20167;-67
2022/09/07 01:58:55;;;;;;;10.30;9.57;;;-40.00;99.90;;;;;;5098126;28;20304;-67
2022/09/07 02:01:31;;;;;;;13.63;12.23;;;-40.00;99.90;;;;;;5097867;28;20209;-67
2022/09/07 02:04:20;;;;;;;11.57;10.70;;;-40.00;99.90;;;;;;5098113;28;20159;-67
2022/09/07 02:07:05;;;;;;;22.23;13.03;;;-40.00;99.90;;;;;;5097706;28;20185;-68
2022/09/07 02:09:38;;;;;;;13.73;11.50;;;-40.00;99.90;;;;;;5098147;28;20167;-68
2022/09/07 02:12:20;;;;;;;31.17;13.23;;;-40.00;99.90;;;;;;5097997;28;20163;-68
2022/09/07 02:14:55;;;;;;;22.00;13.33;;;-40.00;99.90;;;;;;5098075;28;20253;-68
2022/09/07 02:17:28;;;;;;;14.13;12.60;;;-40.00;99.90;;;;;;5098041;28;20162;-67
2022/09/07 02:20:02;;;;;;;12.93;11.63;;;-40.00;99.90;;;;;;5097562;28;20174;-66
2022/09/07 02:22:32;;;;;;;20.20;12.57;;;-40.00;99.90;;;;;;5097912;28;20197;-71
2022/09/07 02:25:00;;;;;;;11.00;10.00;;;-40.00;99.90;;;;;;5097957;28;20163;-69
2022/09/07 02:27:38;;;;;;;10.57;9.47;;;-40.00;99.90;;;;;;5098044;28;20247;-73
2022/09/07 02:30:04;;;;;;;10.73;9.83;;;-40.00;99.90;;;;;;5097997;28;20167;-69
2022/09/07 02:32:30;;;;;;;12.17;10.50;;;-40.00;99.90;;;;;;5097885;28;20178;-68
2022/09/07 02:34:55;;;;;;;18.27;10.10;;;-40.00;99.90;;;;;;5097565;28;20196;-69
2022/09/07 02:37:22;;;;;;;11.03;9.77;;;-40.00;99.90;;;;;;5097691;28;20177;-69
2022/09/07 02:39:48;;;;;;;13.70;10.80;;;-40.00;99.90;;;;;;5097827;28;20167;-68
2022/09/07 02:42:14;;;;;;;10.53;9.70;;;-40.00;99.90;;;;;;5097402;28;20273;-67
2022/09/07 02:44:41;;;;;;;25.47;11.50;;;-40.00;99.90;;;;;;5097700;28;20192;-69
2022/09/07 02:47:16;;;;;;;10.10;9.00;;;-40.00;99.90;;;;;;5097574;28;20255;-68
2022/09/07 02:49:47;;;;;;;11.83;10.83;;;-40.00;99.90;;;;;;5096063;28;20249;-69
2022/09/07 02:52:13;;;;;;;12.50;11.30;;;-40.00;99.90;;;;;;5097175;28;20171;-69
2022/09/07 02:54:52;;;;;;;12.53;11.23;;;-40.00;99.90;;;;;;5097497;28;20178;-69
2022/09/07 02:57:33;;;;;;;18.67;14.80;;;-40.00;99.90;;;;;;5097240;28;20253;-68
2022/09/07 03:00:10;;;;;;;13.63;12.30;;;-40.00;99.90;;;;;;5097042;28;20190;-67
2022/09/07 03:02:44;;;;;;;16.80;14.00;;;-40.00;99.90;;;;;;5097023;28;20205;-68
2022/09/07 03:05:22;;;;;;;20.00;15.13;;;-40.00;99.90;;;;;;5097001;28;20269;-69
2022/09/07 03:07:58;;;;;;;14.63;13.43;;;-40.00;99.90;;;;;;5096927;28;20163;-67
2022/09/07 03:10:24;;;;;;;30.83;14.27;;;-40.00;99.90;;;;;;5097025;28;20166;-68
2022/09/07 03:12:50;;;;;;;19.40;12.97;;;-40.00;99.90;;;;;;5097090;28;20613;-69
2022/09/07 03:15:25;;;;;;;13.23;11.97;;;-40.00;99.90;;;;;;5096959;28;20167;-67
2022/09/07 03:17:51;;;;;;;14.23;12.87;;;-40.00;99.90;;;;;;5096550;28;20162;-67
2022/09/07 03:20:18;;;;;;;13.40;12.20;;;-40.00;99.90;;;;;;5096809;28;20173;-69
2022/09/07 03:22:45;;;;;;;15.00;13.63;;;-40.00;99.90;;;;;;5096622;28;20214;-68
2022/09/07 03:25:11;;;;;;;14.83;13.47;;;-40.00;99.90;;;;;;5096789;28;20163;-69
2022/09/07 03:27:37;;;;;;;18.50;13.43;;;-40.00;99.90;;;;;;5096764;28;20167;-66
2022/09/07 03:30:08;;;;;;;15.87;14.27;;;-40.00;99.90;;;;;;5096681;28;20236;-71
2022/09/07 03:32:35;;;;;;;14.80;13.60;;;-40.00;99.90;;;;;;5096309;28;20167;-72
2022/09/07 03:35:02;;;;;;;16.47;14.90;;;-40.00;99.90;;;;;;5096676;28;20495;-70
2022/09/07 03:37:28;;;;;;;15.90;14.60;;;-40.00;99.90;;;;;;5096432;28;20170;-69
2022/09/07 03:39:54;;;;;;;14.87;13.77;;;-40.00;99.90;;;;;;5096513;28;20167;-70
2022/09/07 03:42:20;;;;;;;16.37;14.73;;;-40.00;99.90;;;;;;5096403;28;20204;-67
2022/09/07 03:44:48;;;;;;;15.17;13.90;;;-40.00;99.90;;;;;;5096464;28;20192;-66
2022/09/07 03:47:15;;;;;;;16.30;14.80;;;-40.00;99.90;;;;;;5096065;28;20167;-71
2022/09/07 03:49:40;;;;;;;16.03;14.40;;;-40.00;99.90;;;;;;5096379;28;20154;-71
2022/09/07 03:52:07;;;;;;;18.10;15.33;;;-40.00;99.90;;;;;;5096175;28;20662;-69
2022/09/07 03:54:32;;;;;;;16.97;14.27;;;-40.00;99.90;;;;;;5096205;28;20167;-68
2022/09/07 03:56:58;;;;;;;15.03;13.73;;;-40.00;99.90;;;;;;5096233;28;20469;-70
2022/09/07 03:59:24;;;;;;;16.53;14.70;;;-40.00;99.90;;;;;;5096035;28;20186;-68
2022/09/07 04:01:50;;;;;;;25.20;15.83;;;-40.00;99.90;;;;;;5095688;28;20500;-68
2022/09/07 04:04:16;;;;;;;14.90;12.43;;;-40.00;99.90;;;;;;5095466;28;20235;-69
2022/09/07 04:06:42;;;;;;;15.87;12.70;;;-40.00;99.90;;;;;;5095043;28;20167;-69
2022/09/07 04:09:12;;;;;;;14.43;13.03;;;-40.00;99.90;;;;;;5095001;28;20476;-69
2022/09/07 04:11:39;;;;;;;20.13;13.70;;;-40.00;99.90;;;;;;5096049;28;20247;-70
2022/09/07 04:14:06;;;;;;;17.37;13.40;;;-40.00;99.90;;;;;;5095953;28;20245;-69
2022/09/07 04:16:32;;;;;;;21.73;12.13;;;-40.00;99.90;;;;;;5095609;28;20227;-69
2022/09/07 04:18:57;;;;;;;16.47;12.53;;;-40.00;99.90;;;;;;5095893;28;20170;-69
2022/09/07 04:21:25;;;;;;;13.83;12.43;;;-40.00;99.90;;;;;;5095846;28;20198;-73
2022/09/07 04:23:51;;;;;;;11.53;10.43;;;-40.00;99.90;;;;;;5095869;28;20224;-69
2022/09/07 04:26:21;;;;;;;13.60;12.30;;;-40.00;99.90;;;;;;5094658;28;20573;-69
2022/09/07 04:28:48;;;;;;;9.73;8.93;;;-40.00;99.90;;;;;;5095615;28;20166;-67
2022/09/07 04:31:15;;;;;;;12.00;11.00;;;-40.00;99.90;;;;;;5095445;28;20170;-70
2022/09/07 04:33:42;;;;;;;14.17;11.90;;;-40.00;99.90;;;;;;5095714;28;20259;-69
2022/09/07 04:36:08;;;;;;;11.90;10.40;;;-40.00;99.90;;;;;;5095818;28;20178;-68
2022/09/07 04:38:34;;;;;;;11.30;10.00;;;-40.00;99.90;;;;;;5094514;28;20176;-71
2022/09/07 04:41:05;;;;;;;10.27;9.30;;;-40.00;99.90;;;;;;5095678;28;20487;-69
2022/09/07 04:43:31;;;;;;;15.47;10.80;;;-40.00;99.90;;;;;;5095537;28;20203;-66
2022/09/07 04:46:00;;;;;;;10.27;8.53;;;-40.00;99.90;;;;;;5095319;28;20245;-69
2022/09/07 04:48:26;;;;;;;11.67;10.53;;;-40.00;99.90;;;;;;5095499;28;20262;-67
2022/09/07 04:50:51;;;;;;;10.70;8.30;;;-40.00;99.90;;;;;;5095554;28;20312;-69
2022/09/07 04:53:18;;;;;;;9.73;8.70;;;-40.00;99.90;;;;;;5095482;28;20220;-68
2022/09/07 04:55:44;;;;;;;11.93;8.63;;;-40.00;99.90;;;;;;5095567;28;20170;-68
2022/09/07 04:58:10;;;;;;;15.97;9.67;;;-40.00;99.90;;;;;;5095900;28;20162;-67
2022/09/07 05:00:38;;;;;;;13.30;10.77;;;-40.00;99.90;;;;;;5093789;28;20194;-68
2022/09/07 05:03:04;;;;;;;11.03;10.03;;;-40.00;99.90;;;;;;5095521;28;20273;-74
2022/09/07 05:05:30;;;;;;;11.13;8.97;;;-40.00;99.90;;;;;;5095387;28;20169;-70
2022/09/07 05:07:56;;;;;;;19.10;10.00;;;-40.00;99.90;;;;;;5095475;28;20592;-67
2022/09/07 05:10:22;;;;;;;12.10;10.03;;;-40.00;99.90;;;;;;5095237;28;20249;-68
2022/09/07 05:12:48;;;;;;;11.87;10.10;;;-40.00;99.90;;;;;;5095493;28;20258;-69
2022/09/07 05:15:13;;;;;;;10.83;9.77;;;-40.00;99.90;;;;;;5095262;28;20174;-66
2022/09/07 05:17:39;;;;;;;10.73;9.67;;;-40.00;99.90;;;;;;5099163;28;20189;-68
2022/09/07 05:20:05;;;;;;;11.80;9.17;;;-40.00;99.90;;;;;;5097857;28;20583;-68
2022/09/07 05:22:34;;;;;;;15.17;10.07;;;-40.00;99.90;;;;;;5098966;28;20194;-68
2022/09/07 05:25:00;;;;;;;16.87;11.00;;;-40.00;99.90;;;;;;5098921;28;20163;-68
2022/09/07 05:27:25;;;;;;;11.63;9.83;;;-40.00;99.90;;;;;;5098947;28;20231;-68
2022/09/07 05:29:52;;;;;;;9.40;8.63;;;-40.00;99.90;;;;;;5098715;28;20182;-70
2022/09/07 05:32:18;;;;;;;11.27;9.60;;;-40.00;99.90;;;;;;5099002;28;20182;-69
2022/09/07 05:34:44;;;;;;;21.17;9.43;;;-40.00;99.90;;;;;;5098796;28;20177;-68
2022/09/07 05:37:10;;;;;;;9.77;8.73;;;-40.00;99.90;;;;;;5098807;28;20239;-68
2022/09/07 05:39:36;;;;;;;11.77;8.77;;;-40.00;99.90;;;;;;5097428;28;20617;-67
2022/09/07 05:42:02;;;;;;;10.77;9.53;;;-40.00;99.90;;;;;;5098616;28;20274;-69
2022/09/07 05:44:30;;;;;;;18.43;9.83;;;-40.00;99.90;;;;;;5098261;28;20173;-70
2022/09/07 05:46:56;;;;;;;13.33;10.07;;;-40.00;99.90;;;;;;5097579;28;20178;-69
2022/09/07 05:49:22;;;;;;;10.20;9.30;;;-40.00;99.90;;;;;;5098620;28;20182;-67
2022/09/07 05:51:48;;;;;;;11.60;10.20;;;-40.00;99.90;;;;;;5098441;28;20551;-71
2022/09/07 05:54:14;;;;;;;10.07;9.07;;;-40.00;99.90;;;;;;5098842;28;20179;-70
2022/09/07 05:56:39;;;;;;;15.23;12.40;;;-40.00;99.90;;;;;;5098255;28;20190;-70
2022/09/07 05:59:05;;;;;;;11.80;10.80;;;-40.00;99.90;;;;;;5097853;28;20202;-70
2022/09/07 06:01:31;;;;;;;10.53;9.67;;;-40.00;99.90;;;;;;5098005;28;20612;-69
2022/09/07 06:03:57;;;;;;;15.83;11.30;;;-40.00;99.90;;;;;;5098192;28;20162;-70
2022/09/07 06:06:23;;;;;;;14.87;12.07;;;-40.00;99.90;;;;;;5098107;28;20209;-68
2022/09/07 06:08:51;;;;;;;21.03;10.70;;;-40.00;99.90;;;;;;5098218;28;20203;-67
2022/09/07 06:11:19;;;;;;;21.20;12.20;;;-40.00;99.90;;;;;;5098152;28;20214;-67
2022/09/07 06:13:45;;;;;;;13.57;11.17;;;-40.00;99.90;;;;;;5097780;28;20586;-67
2022/09/07 06:16:12;;;;;;;14.03;11.80;;;-40.00;99.90;;;;;;5096919;28;20262;-67
2022/09/07 06:18:41;;;;;;;20.23;12.00;;;-40.00;99.90;;;;;;5098149;28;20178;-68
2022/09/07 06:21:10;;;;;;;13.50;12.03;;;-40.00;99.90;;;;;;5097799;28;20191;-67
2022/09/07 06:23:37;;;;;;;17.53;13.57;;;-40.00;99.90;;;;;;5097923;28;20568;-67
2022/09/07 06:26:03;;;;;;;14.00;12.67;;;-40.00;99.90;;;;;;5097727;28;20173;-69
2022/09/07 06:28:35;;;;;;;16.43;14.93;;;-40.00;99.90;;;;;;5097045;28;20171;-67
2022/09/07 06:31:02;;;;;;;16.97;15.03;;;-40.00;99.90;;;;;;5097688;28;20171;-67
2022/09/07 06:33:28;;;;;;;17.27;15.67;;;-40.00;99.90;;;;;;5097731;28;20171;-66
2022/09/07 06:35:59;;;;;;;18.20;16.30;;;-40.00;99.90;;;;;;5097688;28;20223;-66
2022/09/07 06:38:29;;;;;;;23.60;16.77;;;-40.00;99.90;;;;;;5097545;28;20194;-69
2022/09/07 06:41:11;;;;;;;19.63;17.83;;;-40.00;99.90;;;;;;5096099;28;20178;-69
2022/09/07 06:43:36;;;;;;;21.67;19.33;;;-40.00;99.90;;;;;;5097471;28;20165;-69
2022/09/07 06:46:03;;;;;;;22.70;19.40;;;-40.00;99.90;;;;;;5097451;28;20167;-68
2022/09/07 06:48:29;;;;;;;21.67;17.50;;;-40.00;99.90;;;;;;5097396;28;20213;-67
2022/09/07 06:51:06;;;;;;;20.87;18.77;;;-40.00;99.90;;;;;;5097200;28;20190;-67
2022/09/07 06:53:33;;;;;;;22.13;17.70;;;-40.00;99.90;;;;;;5097424;28;20166;-68
2022/09/07 06:56:00;;;;;;;21.83;19.70;;;-40.00;99.90;;;;;;5095993;28;20167;-66
2022/09/07 06:58:27;;;;;;;18.83;16.90;;;-40.00;99.90;;;;;;5097063;28;20616;-68
2022/09/07 07:00:55;;;;;;;19.93;18.00;;;-40.00;99.90;;;;;;5097234;28;20163;-68
2022/09/07 07:03:21;;;;;;;19.90;16.80;;;-40.00;99.90;;;;;;5097202;28;20249;-67
2022/09/07 07:05:54;;;;;;;16.07;14.57;;;-40.00;99.90;;;;;;5097078;28;20235;-68
2022/09/07 07:08:23;;;;;;;17.90;15.03;;;-40.00;99.90;;;;;;5097200;28;20589;-67
2022/09/07 07:10:49;;;;;;;18.43;13.73;;;-40.00;99.90;;;;;;5096733;28;20170;-67
2022/09/07 07:13:15;;;;;;;16.37;14.63;;;-40.00;99.90;;;;;;5097086;28;20167;-67
2022/09/07 07:15:41;;;;;;;17.43;13.27;;;-40.00;99.90;;;;;;5096987;28;20167;-67
2022/09/07 07:18:08;;;;;;;20.73;14.37;;;-40.00;99.90;;;;;;5095904;28;20162;-69
2022/09/07 07:20:35;;;;;;;16.67;14.03;;;-40.00;99.90;;;;;;5096821;28;20170;-69
2022/09/07 07:23:01;;;;;;;15.30;13.50;;;-40.00;99.90;;;;;;5096624;28;20194;-68
2022/09/07 07:25:27;;;;;;;17.07;12.53;;;-40.00;99.90;;;;;;5096523;28;20202;-69
2022/09/07 07:27:53;;;;;;;14.77;12.37;;;-40.00;99.90;;;;;;5096696;28;20159;-74
2022/09/07 07:30:19;;;;;;;14.33;12.33;;;-40.00;99.90;;;;;;5096677;28;20174;-73
2022/09/07 07:32:46;;;;;;;15.70;10.50;;;-40.00;99.90;;;;;;5096442;28;20198;-68
2022/09/07 07:35:13;;;;;;;15.13;10.60;;;-40.00;99.90;;;;;;5096528;28;20175;-70
2022/09/07 07:37:39;;;;;;;13.03;10.70;;;-40.00;99.90;;;;;;5096267;28;20186;-70
2022/09/07 07:40:07;;;;;;;13.57;10.73;;;-40.00;99.90;;;;;;5095762;28;20225;-73
2022/09/07 07:42:34;;;;;;;14.67;10.23;;;-40.00;99.90;;;;;;5096234;28;20202;-69
2022/09/07 07:45:01;;;;;;;15.70;9.40;;;-40.00;99.90;;;;;;5096487;28;20295;-68
2022/09/07 07:47:27;;;;;;;15.73;7.40;;;-40.00;99.90;;;;;;5096304;28;20291;-67
2022/09/07 07:49:53;;;;;;;11.00;7.83;;;-40.00;99.90;;;;;;5096236;28;20631;-70
2022/09/07 07:52:19;;;;;;;9.00;7.40;;;-40.00;99.90;;;;;;5096327;28;20255;-78
2022/09/07 07:54:45;;;;;;;12.73;6.43;;;-40.00;99.90;;;;;;5096098;28;20166;-77
2022/09/07 07:57:11;;;;;;;18.73;8.97;;;-40.00;99.90;;;;;;5096207;28;20174;-77
2022/09/07 07:59:37;;;;;;;17.77;8.77;;;-40.00;99.90;;;;;;5096054;28;20179;-76
2022/09/07 08:02:07;;;;;;;8.97;6.00;;;-40.00;99.90;;;;;;5096065;28;20629;-73
2022/09/07 08:04:34;;;;;;;9.83;6.43;;;-40.00;99.90;;;;;;5094906;28;20219;-78
2022/09/07 08:07:00;;;;;;;11.37;7.13;;;-40.00;99.90;;;;;;5096035;28;20165;-76
2022/09/07 08:09:26;;;;;;;11.77;6.30;;;-40.00;99.90;;;;;;5095560;28;20166;-77
2022/09/07 08:11:52;;;;;;;12.57;7.50;;;-40.00;99.90;;;;;;5096005;28;20190;-79
2022/09/07 08:14:17;;;;;;;10.07;6.10;;;-40.00;99.90;;;;;;5095866;28;20202;-77
2022/09/07 08:16:46;;;;;;;6.63;5.57;;;-40.00;99.90;;;;;;5095885;28;20159;-77
2022/09/07 08:19:12;;;;;;;10.07;6.47;;;-40.00;99.90;;;;;;5095743;28;20241;-73
2022/09/07 08:21:38;;;;;;;7.07;4.67;;;-40.00;99.90;;;;;;5095749;28;20653;-75
2022/09/07 08:24:03;;;;;;;6.17;4.30;;;-40.00;99.90;;;;;;5095550;28;20165;-73
2022/09/07 08:26:30;;;;;;;7.97;4.67;;;-40.00;99.90;;;;;;5095889;28;20173;-73
2022/09/07 08:28:55;;;;;;;12.67;5.30;;;-40.00;99.90;;;;;;5095544;28;20166;-77
2022/09/07 08:31:21;;;;;;;9.00;5.23;;;-40.00;99.90;;;;;;5095583;28;20177;-74
2022/09/07 08:33:47;;;;;;;8.87;4.20;;;-40.00;99.90;;;;;;5095641;28;20167;-76
2022/09/07 08:36:19;;;;;;;7.33;4.73;;;-40.00;99.90;;;;;;5095866;28;20310;-77
2022/09/07 08:38:45;;;;;;;11.00;3.50;;;-40.00;99.90;;;;;;5095311;28;20167;-74
2022/09/07 08:41:30;;;;;;;5.27;3.63;;;-40.00;99.90;;;;;;5095669;28;20244;-77
2022/09/07 08:44:02;;;;;;;9.17;4.50;;;-40.00;99.90;;;;;;5095519;28;20589;-74
2022/09/07 08:46:59;;;;;;;6.07;3.83;;;-40.00;99.90;;;;;;5095568;28;20169;-74
2022/09/07 08:49:34;;;;;;;7.07;4.70;;;-40.00;99.90;;;;;;5095763;28;20171;-73
2022/09/07 08:52:03;;;;;;;3.53;2.80;;;-40.00;99.90;;;;;;5099274;28;20182;-74
2022/09/07 08:54:29;;;;;;;5.83;3.03;;;-40.00;99.90;;;;;;5098604;28;20171;-76
2022/09/07 08:56:59;;;;;;;6.63;3.53;;;-40.00;99.90;;;;;;5099715;28;20221;-77
2022/09/07 09:00:01;;;;;;;5.10;2.77;;;-40.00;99.90;;;;;;5099177;28;20594;-76
2022/09/07 09:02:27;;;;;;;4.20;2.30;;;-40.00;99.90;;;;;;5098160;28;20504;-77
2022/09/07 09:04:53;;;;;;;2.13;1.70;;;-40.00;99.90;;;;;;5099412;28;20166;-72
2022/09/07 09:07:35;;;;;;;5.33;1.60;;;-40.00;99.90;;;;;;5099115;28;20460;-75
2022/09/07 09:10:32;;;;;;;2.13;1.70;;;-40.00;99.90;;;;;;5099278;28;20533;-72
2022/09/07 09:13:10;;;;;;;8.10;1.23;;;-40.00;99.90;;;;;;5099549;28;20514;-76
2022/09/07 09:15:56;;;;;;;5.67;1.77;;;-40.00;99.90;;;;;;5099200;28;20645;-78
2022/09/07 09:18:49;;;;;;;3.27;1.50;;;-40.00;99.90;;;;;;5091680;28;20611;-75
2022/09/07 09:21:17;;;;;;;5.70;1.90;;;-40.00;99.90;;;;;;5098634;28;20186;-76
2022/09/07 09:23:47;;;;;;;3.30;1.87;;;-40.00;99.90;;;;;;5099131;28;20166;-77
2022/09/07 09:26:23;;;;;;;1.83;1.57;;;-40.00;99.90;;;;;;5098950;28;20418;-75
2022/09/07 09:28:49;;;;;;;3.53;2.10;;;-40.00;99.90;;;;;;5098711;28;20224;-79
2022/09/07 09:31:31;;;;;;;3.43;1.60;;;-40.00;99.90;;;;;;5098846;28;20163;-77
2022/09/07 09:34:15;;;;;;;4.73;1.93;;;-40.00;99.90;;;;;;5098849;28;20171;-76
2022/09/07 09:36:47;;;;;;;2.13;1.00;;;-40.00;99.90;;;;;;5097429;28;20198;-79
2022/09/07 09:39:31;;;;;;;3.80;1.40;;;-40.00;98.90;;;;;;5098816;28;20170;-73
2022/09/07 09:42:24;;;;;;;7.37;2.27;;;-40.00;99.10;;;;;;5098530;28;20200;-77
2022/09/07 09:44:50;;;;;;;3.00;1.37;;;-40.00;98.30;;;;;;5094045;28;20181;-74
2022/09/07 09:47:31;;;;;;;4.80;1.60;;;-40.00;97.70;;;;;;5097695;28;20265;-76
2022/09/07 09:50:14;;;;;;;4.17;1.07;;;-40.00;96.90;;;;;;5098010;28;20166;-76
2022/09/07 09:52:44;;;;;;;6.60;1.73;;;-40.00;96.60;;;;;;5098441;28;20707;-70
2022/09/07 09:55:25;;;;;;;5.37;1.70;;;-40.00;98.30;;;;;;5097356;28;20174;-76
2022/09/07 09:57:53;;;;;;;6.03;0.83;;;-40.00;98.40;;;;;;5098339;28;20178;-72
2022/09/07 10:00:22;;;;;;;5.40;1.97;;;-40.00;98.80;;;;;;5098080;28;20182;-78
2022/09/07 10:03:24;;;;;;;3.47;1.70;;;-40.00;99.20;;;;;;5097175;28;20490;-77
2022/09/07 10:05:50;;;;;;;7.53;3.10;;;-40.00;99.80;;;;;;5064843;28;20174;-79
2022/09/07 10:08:21;;;;;;;9.40;3.70;;;-40.00;99.80;;;;;;5098434;28;20245;-77
2022/09/07 10:10:58;;;;;;;3.23;1.83;;;-40.00;99.40;;;;;;5098021;28;20158;-74
2022/09/07 10:13:34;;;;;;;3.10;1.60;;;-40.00;98.70;;;;;;5098297;28;20162;-77
2022/09/07 10:16:05;;;;;;;5.10;2.60;;;-40.00;99.40;;;;;;5097875;28;20163;-73
2022/09/07 10:18:37;;;;;;;2.87;1.80;;;-40.00;98.60;;;;;;5097801;28;20462;-73
2022/09/07 10:21:26;;;;;;;2.53;1.23;;;-40.00;98.50;;;;;;5097742;28;20170;-72
2022/09/07 10:24:12;;;;;;;3.37;1.30;;;-40.00;98.60;;;;;;5097911;28;20604;-69
2022/09/07 10:26:39;;;;;;;6.87;1.63;;;-40.00;98.10;;;;;;5097751;28;20291;-67
2022/09/07 10:29:28;;;;;;;4.70;1.20;;;-40.00;98.70;;;;;;5097725;28;20660;-69
2022/09/07 10:32:06;;;;;;;5.13;1.27;;;-40.00;96.20;;;;;;5097711;28;20175;-68
2022/09/07 10:34:41;;;;;;;4.90;1.40;;;-40.00;95.50;;;;;;5097748;28;20450;-73
2022/09/07 10:37:10;;;;;;;3.20;1.80;;;-40.00;95.10;;;;;;5097588;28;20197;-74
2022/09/07 10:40:05;;;;;;;3.07;1.03;;;-40.00;92.80;;;;;;5097611;28;20174;-72
2022/09/07 10:42:45;;;;;;;4.93;1.53;;;-40.00;92.90;;;;;;5096267;28;20198;-73
2022/09/07 10:45:14;;;;;;;5.17;1.30;;;-40.00;91.30;;;;;;5097649;28;20197;-74
2022/09/07 10:48:12;;;;;;;3.20;1.30;;;-40.00;91.70;;;;;;5097129;28;20594;-72
2022/09/07 10:50:45;;;;;;;5.03;1.43;;;-40.00;90.30;;;;;;5082802;28;20191;-72
2022/09/07 10:53:23;;;;;;;2.80;1.30;;;-40.00;89.50;;;;;;5097207;28;20171;-72
2022/09/07 10:56:12;;;;;;;2.93;0.90;;;-40.00;90.80;;;;;;5097410;28;20570;-72
2022/09/07 10:59:08;;;;;;;2.37;1.10;;;-40.00;89.90;;;;;;5096982;28;20463;-71
2022/09/07 11:01:41;;;;;;;3.03;1.33;;;-40.00;88.20;;;;;;5096942;28;20475;-71
2022/09/07 11:04:58;;;;;;;2.50;0.90;;;-40.00;90.50;;;;;;5096892;28;20588;-75
2022/09/07 11:07:44;;;;;;;7.10;1.60;;;-40.00;90.20;;;;;;5054555;28;20604;-71
2022/09/07 11:10:31;;;;;;;3.87;1.60;;;-40.00;85.90;;;;;;5094112;28;20193;-71
2022/09/07 11:13:01;;;;;;;5.47;1.23;;;-40.00;85.40;;;;;;5096669;28;20242;-70
2022/09/07 11:15:32;;;;;;;4.10;1.03;;;-40.00;86.50;;;;;;5097029;28;20171;-71
2022/09/07 11:18:01;;;;;;;2.40;2.03;;;-40.00;86.30;;;;;;5096497;28;20180;-71
2022/09/07 11:20:54;;;;;;;3.50;0.83;;;-40.00;89.00;;;;;;5096822;28;20172;-75
2022/09/07 11:23:29;;;;;;;4.63;1.93;;;-40.00;84.60;;;;;;5096831;28;20173;-76
2022/09/07 11:26:16;;;;;;;4.27;1.60;;;-40.00;84.50;;;;;;5096725;28;20181;-72
2022/09/07 11:28:53;;;;;;;3.30;1.13;;;-40.00;83.10;;;;;;5096508;28;20266;-74
2022/09/07 11:31:42;;;;;;;3.57;1.00;;;-40.00;80.80;;;;;;5096474;28;20600;-78
2022/09/07 11:34:21;;;;;;;2.30;1.00;;;-40.00;81.40;;;;;;5096590;28;20163;-71
2022/09/07 11:37:06;;;;;;;3.93;1.33;;;-40.00;82.10;;;;;;5096510;28;20279;-69
2022/09/07 11:39:43;;;;;;;8.53;1.27;;;-40.00;80.10;;;;;;5096521;28;20163;-74
2022/09/07 11:42:29;;;;;;;4.63;1.40;;;-40.00;75.90;;;;;;5096267;28;20248;-68
2022/09/07 11:45:18;;;;;;;5.17;2.13;;;-40.00;70.00;;;;;;5096401;28;20163;-71
2022/09/07 11:48:10;;;;;;;4.17;1.10;;;-40.00;70.90;;;;;;5096296;28;20179;-71
2022/09/07 11:50:41;;;;;;;4.30;1.37;;;-40.00;70.10;;;;;;5090309;28;20285;-69
2022/09/07 11:53:24;;;;;;;3.50;1.53;;;-40.00;69.70;;;;;;5095174;28;20177;-69
2022/09/07 11:56:16;;;;;;;3.43;1.00;;;-40.00;68.30;;;;;;5096303;28;20224;-71
2022/09/07 11:58:53;;;;;;;3.47;1.47;;;-40.00;67.80;;;;;;5095968;28;20497;-75
2022/09/07 12:01:31;;;;;;;3.63;1.47;;;-40.00;63.10;;;;;;5094708;28;20194;-71
2022/09/07 12:04:24;;;;;;;7.77;1.30;;;-40.00;61.90;;;;;;5096097;28;20159;-71
2022/09/07 12:07:14;;;;;;;3.50;1.60;;;-40.00;65.80;;;;;;5096128;28;20629;-72
2022/09/07 12:09:58;;;;;;;5.47;1.77;;;-40.00;68.20;;;;;;5096056;28;20185;-70
2022/09/07 12:12:42;;;;;;;4.73;1.27;;;-40.00;68.10;;;;;;5096118;28;20441;-70
2022/09/07 12:15:44;;;;;;;3.97;1.90;;;-40.00;67.20;;;;;;5095697;28;20209;-73
2022/09/07 12:18:34;;;;;;;6.13;3.00;;;-40.00;65.60;;;;;;5095870;28;20467;-69
2022/09/07 12:21:00;;;;;;;6.27;1.77;;;-40.00;66.60;;;;;;5095906;28;20162;-69
2022/09/07 12:23:30;;;;;;;2.47;1.40;;;-40.00;64.40;;;;;;5096052;28;20167;-70
2022/09/07 12:26:31;;;;;;;6.77;1.57;;;-40.00;61.80;;;;;;5094427;28;20170;-73
2022/09/07 12:28:57;;;;;;;6.00;1.63;;;-40.00;62.20;;;;;;5079227;28;20188;-71
2022/09/07 12:31:46;;;;;;;2.97;1.43;;;-40.00;60.80;;;;;;5096106;28;20178;-71
2022/09/07 12:34:30;;;;;;;8.57;1.53;;;-40.00;59.30;;;;;;5096066;28;20533;-69
2022/09/07 12:37:00;;;;;;;5.83;2.20;;;-40.00;60.10;;;;;;5095935;28;20162;-69
2022/09/07 12:39:31;;;;;;;4.33;1.33;;;-40.00;57.90;;;;;;5095841;28;20177;-71
2022/09/07 12:42:09;;;;;;;3.90;2.13;;;-40.00;58.90;;;;;;5095733;28;20240;-72
2022/09/07 12:44:36;;;;;;;3.37;2.53;;;-40.00;59.60;;;;;;5095740;28;20246;-70
2022/09/07 12:47:11;;;;;;;2.27;1.47;;;-40.00;58.30;;;;;;5095814;28;20187;-70
2022/09/07 12:49:43;;;;;;;9.80;2.83;;;-40.00;57.90;;;;;;5094685;28;20177;-69
2022/09/07 12:52:08;;;;;;;5.13;2.07;;;-40.00;57.70;;;;;;5094688;28;20602;-71
2022/09/07 12:54:44;;;;;;;3.03;1.37;;;-40.00;56.30;;;;;;5094736;28;20194;-70